sensor_id;sensor_type;location;lat;lon;timestamp;temperature;humidity
8372;DHT22;4223;48.724;8.982;2022-08-02T00:01:34;18.20;99.90
8372;DHT22;4223;48.724;8.982;2022-08-02T00:04:02;18.20;99.90
8372;DHT22;4223;48.724;8.982;2022-08-02T00:06:29;18.20;99.90
8372;DHT22;4223;48.724;8.982;2022-08-02T00:08:56;18.10;99.90
8372;DHT22;4223;48.724;8.982;2022-08-02T00:11:23;18.10;99.90
8372;DHT22;4223;48.724;8.982;2022-08-02T00:13:50;18.10;99.90
8372;DHT22;4223;48.724;8.982;2022-08-02T00:16:17;18.00;99.90
8372;DHT22;4223;48.724;8.982;2022-08-02T00:18:44;18.10;99.90
8372;DHT22;4223;48.724;8.982;2022-08-02T00:21:12;18.00;99.90
8372;DHT22;4223;48.724;8.982;2022-08-02T00:23:39;18.00;99.90
8372;DHT22;4223;48.724;8.982;2022-08-02T00:26:06;18.00;99.90
8372;DHT22;4223;48.724;8.982;2022-08-02T00:28:33;17.90;99.90
8372;DHT22;4223;48.724;8.982;2022-08-02T00:31:00;17.90;99.90
8372;DHT22;4223;48.724;8.982;2022-08-02T00:33:27;17.90;99.90
8372;DHT22;4223;48.724;8.982;2022-08-02T00:35:54;17.90;99.90
8372;DHT22;4223;48.724;8.982;2022-08-02T00:38:22;17.90;99.90
8372;DHT22;4223;48.724;8.982;2022-08-02T00:40:51;17.80;99.90
8372;DHT22;4223;48.724;8.982;2022-08-02T00:43:18;17.80;99.90
8372;DHT22;4223;48.724;8.982;2022-08-02T00:45:45;17.80;99.90
8372;DHT22;4223;48.724;8.982;2022-08-02T00:48:12;17.80;99.90
8372;DHT22;4223;48.724;8.982;2022-08-02T00:50:40;17.70;99.90
8372;DHT22;4223;48.724;8.982;2022-08-02T00:53:07;17.70;99.90
8372;DHT22;4223;48.724;8.982;2022-08-02T00:55:36;17.70;99.90
8372;DHT22;4223;48.724;8.982;2022-08-02T00:58:03;17.70;99.90
8372;DHT22;4223;48.724;8.982;2022-08-02T01:00:30;17.70;99.90
8372;DHT22;4223;48.724;8.982;2022-08-02T01:02:57;17.60;99.90
8372;DHT22;4223;48.724;8.982;2022-08-02T01:05:25;17.60;99.90
8372;DHT22;4223;48.724;8.982;2022-08-02T01:07:52;17.60;99.90
8372;DHT22;4223;48.724;8.982;2022-08-02T01:10:19;17.50;99.90
8372;DHT22;4223;48.724;8.982;2022-08-02T01:12:47;17.60;99.90
8372;DHT22;4223;48.724;8.982;2022-08-02T01:15:16;17.60;99.90
8372;DHT22;4223;48.724;8.982;2022-08-02T01:17:46;17.50;99.90
8372;DHT22;4223;48.724;8.982;2022-08-02T01:20:24;17.40;99.90
8372;DHT22;4223;48.724;8.982;2022-08-02T01:23:08;17.30;99.90
8372;DHT22;4223;48.724;8.982;2022-08-02T01:25:56;17.30;99.90
8372;DHT22;4223;48.724;8.982;2022-08-02T01:28:32;17.30;99.90
8372;DHT22;4223;48.724;8.982;2022-08-02T01:31:03;17.20;99.90
8372;DHT22;4223;48.724;8.982;2022-08-02T01:33:37;17.20;99.90
8372;DHT22;4223;48.724;8.982;2022-08-02T01:36:09;17.30;99.90
8372;DHT22;4223;48.724;8.982;2022-08-02T01:38:39;17.20;99.90
8372;DHT22;4223;48.724;8.982;2022-08-02T01:41:10;17.20;99.90
8372;DHT22;4223;48.724;8.982;2022-08-02T01:43:41;17.20;99.90
8372;DHT22;4223;48.724;8.982;2022-08-02T01:46:10;17.20;99.90
8372;DHT22;4223;48.724;8.982;2022-08-02T01:48:38;17.10;99.90
8372;DHT22;4223;48.724;8.982;2022-08-02T01:51:07;17.10;99.90
8372;DHT22;4223;48.724;8.982;2022-08-02T01:53:37;17.00;99.90
8372;DHT22;4223;48.724;8.982;2022-08-02T01:56:06;17.00;99.90
8372;DHT22;4223;48.724;8.982;2022-08-02T01:58:35;16.90;99.90
8372;DHT22;4223;48.724;8.982;2022-08-02T02:01:05;16.90;99.90
8372;DHT22;4223;48.724;8.982;2022-08-02T02:03:33;16.80;99.90
8372;DHT22;4223;48.724;8.982;2022-08-02T02:06:02;16.80;99.90
8372;DHT22;4223;48.724;8.982;2022-08-02T02:08:35;16.80;99.90
8372;DHT22;4223;48.724;8.982;2022-08-02T02:11:03;16.90;99.90
8372;DHT22;4223;48.724;8.982;2022-08-02T02:13:31;16.90;99.90
8372;DHT22;4223;48.724;8.982;2022-08-02T02:16:01;16.80;99.90
8372;DHT22;4223;48.724;8.982;2022-08-02T02:18:30;16.80;99.90
8372;DHT22;4223;48.724;8.982;2022-08-02T02:20:59;16.80;99.90
8372;DHT22;4223;48.724;8.982;2022-08-02T02:23:27;16.80;99.90
8372;DHT22;4223;48.724;8.982;2022-08-02T02:25:54;16.70;99.90
8372;DHT22;4223;48.724;8.982;2022-08-02T02:28:23;16.60;99.90
8372;DHT22;4223;48.724;8.982;2022-08-02T02:30:59;16.50;99.90
8372;DHT22;4223;48.724;8.982;2022-08-02T02:33:30;16.60;99.90
8372;DHT22;4223;48.724;8.982;2022-08-02T02:35:59;16.50;99.90
8372;DHT22;4223;48.724;8.982;2022-08-02T02:38:30;16.50;99.90
8372;DHT22;4223;48.724;8.982;2022-08-02T02:41:00;16.50;99.90
8372;DHT22;4223;48.724;8.982;2022-08-02T02:43:29;16.50;99.90
8372;DHT22;4223;48.724;8.982;2022-08-02T02:45:58;16.50;99.90
8372;DHT22;4223;48.724;8.982;2022-08-02T02:48:27;16.40;99.90
8372;DHT22;4223;48.724;8.982;2022-08-02T02:50:56;16.40;99.90
8372;DHT22;4223;48.724;8.982;2022-08-02T02:53:24;16.40;99.90
8372;DHT22;4223;48.724;8.982;2022-08-02T02:55:52;16.40;99.90
8372;DHT22;4223;48.724;8.982;2022-08-02T02:58:19;16.40;99.90
8372;DHT22;4223;48.724;8.982;2022-08-02T03:00:47;16.40;99.90
8372;DHT22;4223;48.724;8.982;2022-08-02T03:03:32;16.40;99.90
8372;DHT22;4223;48.724;8.982;2022-08-02T03:06:01;16.30;99.90
8372;DHT22;4223;48.724;8.982;2022-08-02T03:08:28;16.30;99.90
8372;DHT22;4223;48.724;8.982;2022-08-02T03:10:55;16.30;99.90
8372;DHT22;4223;48.724;8.982;2022-08-02T03:13:22;16.30;99.90
8372;DHT22;4223;48.724;8.982;2022-08-02T03:15:51;16.20;99.90
8372;DHT22;4223;48.724;8.982;2022-08-02T03:18:32;16.20;99.90
8372;DHT22;4223;48.724;8.982;2022-08-02T03:21:01;16.10;99.90
8372;DHT22;4223;48.724;8.982;2022-08-02T03:23:29;16.00;99.90
8372;DHT22;4223;48.724;8.982;2022-08-02T03:25:56;16.00;99.90
8372;DHT22;4223;48.724;8.982;2022-08-02T03:28:24;16.00;99.90
8372;DHT22;4223;48.724;8.982;2022-08-02T03:30:51;16.00;99.90
8372;DHT22;4223;48.724;8.982;2022-08-02T03:33:19;16.00;99.90
8372;DHT22;4223;48.724;8.982;2022-08-02T03:35:47;16.10;99.90
8372;DHT22;4223;48.724;8.982;2022-08-02T03:38:18;16.10;99.90
8372;DHT22;4223;48.724;8.982;2022-08-02T03:40:45;16.00;99.90
8372;DHT22;4223;48.724;8.982;2022-08-02T03:43:13;16.00;99.90
8372;DHT22;4223;48.724;8.982;2022-08-02T03:45:42;16.10;99.90
8372;DHT22;4223;48.724;8.982;2022-08-02T03:48:10;16.10;99.90
8372;DHT22;4223;48.724;8.982;2022-08-02T03:50:39;16.10;99.90
8372;DHT22;4223;48.724;8.982;2022-08-02T03:53:06;16.10;99.90
8372;DHT22;4223;48.724;8.982;2022-08-02T03:55:35;16.10;99.90
8372;DHT22;4223;48.724;8.982;2022-08-02T03:58:02;16.00;99.90
8372;DHT22;4223;48.724;8.982;2022-08-02T04:00:29;16.00;99.90
8372;DHT22;4223;48.724;8.982;2022-08-02T04:02:56;15.90;99.90
8372;DHT22;4223;48.724;8.982;2022-08-02T04:05:24;16.00;99.90
8372;DHT22;4223;48.724;8.982;2022-08-02T04:07:51;16.00;99.90
8372;DHT22;4223;48.724;8.982;2022-08-02T04:10:18;15.90;99.90
8372;DHT22;4223;48.724;8.982;2022-08-02T04:12:46;15.90;99.90
8372;DHT22;4223;48.724;8.982;2022-08-02T04:15:14;15.90;99.90
8372;DHT22;4223;48.724;8.982;2022-08-02T04:17:44;15.90;99.90
8372;DHT22;4223;48.724;8.982;2022-08-02T04:20:17;15.90;99.90
8372;DHT22;4223;48.724;8.982;2022-08-02T04:22:48;15.90;99.90
8372;DHT22;4223;48.724;8.982;2022-08-02T04:25:17;15.90;99.90
8372;DHT22;4223;48.724;8.982;2022-08-02T04:27:47;15.90;99.90
8372;DHT22;4223;48.724;8.982;2022-08-02T04:30:15;15.80;99.90
8372;DHT22;4223;48.724;8.982;2022-08-02T04:32:44;15.90;99.90
8372;DHT22;4223;48.724;8.982;2022-08-02T04:35:11;15.90;99.90
8372;DHT22;4223;48.724;8.982;2022-08-02T04:37:38;15.90;99.90
8372;DHT22;4223;48.724;8.982;2022-08-02T04:40:08;15.90;99.90
8372;DHT22;4223;48.724;8.982;2022-08-02T04:42:36;15.90;99.90
8372;DHT22;4223;48.724;8.982;2022-08-02T04:45:06;15.90;99.90
8372;DHT22;4223;48.724;8.982;2022-08-02T04:47:33;15.90;99.90
8372;DHT22;4223;48.724;8.982;2022-08-02T04:50:00;15.90;99.90
8372;DHT22;4223;48.724;8.982;2022-08-02T04:52:27;16.00;99.90
8372;DHT22;4223;48.724;8.982;2022-08-02T04:54:53;16.10;99.90
8372;DHT22;4223;48.724;8.982;2022-08-02T04:57:20;16.10;99.90
8372;DHT22;4223;48.724;8.982;2022-08-02T05:00:08;16.20;99.90
8372;DHT22;4223;48.724;8.982;2022-08-02T05:02:35;16.30;99.90
8372;DHT22;4223;48.724;8.982;2022-08-02T05:05:02;16.30;99.90
8372;DHT22;4223;48.724;8.982;2022-08-02T05:07:28;16.40;99.90
8372;DHT22;4223;48.724;8.982;2022-08-02T05:09:55;16.50;99.90
8372;DHT22;4223;48.724;8.982;2022-08-02T05:12:22;16.40;99.90
8372;DHT22;4223;48.724;8.982;2022-08-02T05:14:50;16.40;99.90
8372;DHT22;4223;48.724;8.982;2022-08-02T05:17:19;16.50;99.90
8372;DHT22;4223;48.724;8.982;2022-08-02T05:19:45;16.60;99.90
8372;DHT22;4223;48.724;8.982;2022-08-02T05:22:12;16.60;99.90
8372;DHT22;4223;48.724;8.982;2022-08-02T05:24:39;16.70;99.90
8372;DHT22;4223;48.724;8.982;2022-08-02T05:27:06;16.70;99.90
8372;DHT22;4223;48.724;8.982;2022-08-02T05:29:33;16.80;99.90
8372;DHT22;4223;48.724;8.982;2022-08-02T05:32:00;16.70;97.80
8372;DHT22;4223;48.724;8.982;2022-08-02T05:34:28;16.90;99.90
8372;DHT22;4223;48.724;8.982;2022-08-02T05:36:55;16.90;97.10
8372;DHT22;4223;48.724;8.982;2022-08-02T05:39:22;17.00;96.60
8372;DHT22;4223;48.724;8.982;2022-08-02T05:41:49;17.00;96.00
8372;DHT22;4223;48.724;8.982;2022-08-02T05:44:16;17.10;88.10
8372;DHT22;4223;48.724;8.982;2022-08-02T05:46:43;17.10;91.90
8372;DHT22;4223;48.724;8.982;2022-08-02T05:49:10;17.00;89.60
8372;DHT22;4223;48.724;8.982;2022-08-02T05:51:41;17.10;90.70
8372;DHT22;4223;48.724;8.982;2022-08-02T05:54:14;17.00;84.80
8372;DHT22;4223;48.724;8.982;2022-08-02T05:56:46;16.90;92.70
8372;DHT22;4223;48.724;8.982;2022-08-02T05:59:21;17.00;94.70
8372;DHT22;4223;48.724;8.982;2022-08-02T06:01:55;17.00;95.80
8372;DHT22;4223;48.724;8.982;2022-08-02T06:04:25;17.00;95.80
8372;DHT22;4223;48.724;8.982;2022-08-02T06:06:55;16.90;92.00
8372;DHT22;4223;48.724;8.982;2022-08-02T06:09:27;16.90;93.70
8372;DHT22;4223;48.724;8.982;2022-08-02T06:11:58;17.00;94.30
8372;DHT22;4223;48.724;8.982;2022-08-02T06:14:25;17.10;90.50
8372;DHT22;4223;48.724;8.982;2022-08-02T06:16:53;17.20;92.10
8372;DHT22;4223;48.724;8.982;2022-08-02T06:19:21;17.30;86.30
8372;DHT22;4223;48.724;8.982;2022-08-02T06:21:49;17.40;89.30
8372;DHT22;4223;48.724;8.982;2022-08-02T06:24:18;17.50;84.60
8372;DHT22;4223;48.724;8.982;2022-08-02T06:26:46;17.60;79.60
8372;DHT22;4223;48.724;8.982;2022-08-02T06:29:17;17.70;72.10
8372;DHT22;4223;48.724;8.982;2022-08-02T06:31:46;17.70;55.90
8372;DHT22;4223;48.724;8.982;2022-08-02T06:34:13;17.80;48.40
8372;DHT22;4223;48.724;8.982;2022-08-02T06:36:45;17.90;33.70
8372;DHT22;4223;48.724;8.982;2022-08-02T06:39:20;17.90;17.30
8372;DHT22;4223;48.724;8.982;2022-08-02T06:41:55;18.00;20.00
8372;DHT22;4223;48.724;8.982;2022-08-02T06:44:24;18.10;37.10
8372;DHT22;4223;48.724;8.982;2022-08-02T06:46:51;18.30;44.50
8372;DHT22;4223;48.724;8.982;2022-08-02T06:49:17;18.40;18.50
8372;DHT22;4223;48.724;8.982;2022-08-02T06:51:44;18.40;24.10
8372;DHT22;4223;48.724;8.982;2022-08-02T06:54:11;18.60;16.10
8372;DHT22;4223;48.724;8.982;2022-08-02T06:56:39;18.70;1.00
8372;DHT22;4223;48.724;8.982;2022-08-02T06:59:06;18.80;1.00
8372;DHT22;4223;48.724;8.982;2022-08-02T07:01:33;18.90;1.00
8372;DHT22;4223;48.724;8.982;2022-08-02T07:04:00;19.00;1.00
8372;DHT22;4223;48.724;8.982;2022-08-02T07:06:28;19.20;1.00
8372;DHT22;4223;48.724;8.982;2022-08-02T07:08:54;19.40;1.00
8372;DHT22;4223;48.724;8.982;2022-08-02T07:11:21;19.50;1.00
8372;DHT22;4223;48.724;8.982;2022-08-02T07:13:50;19.70;1.00
8372;DHT22;4223;48.724;8.982;2022-08-02T07:16:17;19.80;1.00
8372;DHT22;4223;48.724;8.982;2022-08-02T07:18:43;20.00;99.90
8372;DHT22;4223;48.724;8.982;2022-08-02T07:21:11;20.30;1.00
8372;DHT22;4223;48.724;8.982;2022-08-02T07:23:38;20.70;1.00
8372;DHT22;4223;48.724;8.982;2022-08-02T07:26:05;21.10;99.90
8372;DHT22;4223;48.724;8.982;2022-08-02T07:28:31;21.50;77.40
8372;DHT22;4223;48.724;8.982;2022-08-02T07:31:00;22.00;1.00
8372;DHT22;4223;48.724;8.982;2022-08-02T07:33:27;22.80;1.00
8372;DHT22;4223;48.724;8.982;2022-08-02T07:35:53;23.60;1.00
8372;DHT22;4223;48.724;8.982;2022-08-02T07:38:21;23.90;99.90
8372;DHT22;4223;48.724;8.982;2022-08-02T07:40:49;24.10;82.20
8372;DHT22;4223;48.724;8.982;2022-08-02T07:43:16;24.00;1.00
8372;DHT22;4223;48.724;8.982;2022-08-02T07:45:43;23.90;1.00
8372;DHT22;4223;48.724;8.982;2022-08-02T07:48:11;24.30;1.00
8372;DHT22;4223;48.724;8.982;2022-08-02T07:50:38;24.60;1.00
8372;DHT22;4223;48.724;8.982;2022-08-02T07:53:05;24.50;1.00
8372;DHT22;4223;48.724;8.982;2022-08-02T07:55:31;25.20;1.00
8372;DHT22;4223;48.724;8.982;2022-08-02T07:57:58;25.30;1.00
8372;DHT22;4223;48.724;8.982;2022-08-02T08:00:25;25.70;1.00
8372;DHT22;4223;48.724;8.982;2022-08-02T08:02:52;25.70;1.00
8372;DHT22;4223;48.724;8.982;2022-08-02T08:05:20;25.10;1.00
8372;DHT22;4223;48.724;8.982;2022-08-02T08:07:48;25.10;1.00
8372;DHT22;4223;48.724;8.982;2022-08-02T08:10:15;25.10;99.90
8372;DHT22;4223;48.724;8.982;2022-08-02T08:12:41;24.90;1.00
8372;DHT22;4223;48.724;8.982;2022-08-02T08:15:09;25.00;1.00
8372;DHT22;4223;48.724;8.982;2022-08-02T08:17:36;25.30;1.00
8372;DHT22;4223;48.724;8.982;2022-08-02T08:20:04;25.60;1.00
8372;DHT22;4223;48.724;8.982;2022-08-02T08:22:32;26.20;99.90
8372;DHT22;4223;48.724;8.982;2022-08-02T08:24:59;26.40;99.90
8372;DHT22;4223;48.724;8.982;2022-08-02T08:27:26;27.00;99.90
8372;DHT22;4223;48.724;8.982;2022-08-02T08:29:53;26.90;99.90
8372;DHT22;4223;48.724;8.982;2022-08-02T08:32:20;26.40;99.90
8372;DHT22;4223;48.724;8.982;2022-08-02T08:34:47;26.90;99.90
8372;DHT22;4223;48.724;8.982;2022-08-02T08:37:15;26.90;99.90
8372;DHT22;4223;48.724;8.982;2022-08-02T08:39:44;26.90;99.90
8372;DHT22;4223;48.724;8.982;2022-08-02T08:42:11;27.40;99.90
8372;DHT22;4223;48.724;8.982;2022-08-02T08:44:37;27.10;99.90
8372;DHT22;4223;48.724;8.982;2022-08-02T08:47:04;26.90;99.90
8372;DHT22;4223;48.724;8.982;2022-08-02T08:49:35;26.80;99.90
8372;DHT22;4223;48.724;8.982;2022-08-02T08:52:04;27.30;99.90
8372;DHT22;4223;48.724;8.982;2022-08-02T08:54:33;27.60;99.90
8372;DHT22;4223;48.724;8.982;2022-08-02T08:57:04;28.10;99.90
8372;DHT22;4223;48.724;8.982;2022-08-02T08:59:32;27.90;99.90
8372;DHT22;4223;48.724;8.982;2022-08-02T09:02:00;28.00;99.90
8372;DHT22;4223;48.724;8.982;2022-08-02T09:04:28;28.40;99.90
8372;DHT22;4223;48.724;8.982;2022-08-02T09:06:55;28.10;99.90
8372;DHT22;4223;48.724;8.982;2022-08-02T09:09:22;28.40;99.90
8372;DHT22;4223;48.724;8.982;2022-08-02T09:11:49;28.00;99.90
8372;DHT22;4223;48.724;8.982;2022-08-02T09:14:26;28.30;99.90
8372;DHT22;4223;48.724;8.982;2022-08-02T09:17:05;28.70;99.90
8372;DHT22;4223;48.724;8.982;2022-08-02T09:19:32;29.20;99.90
8372;DHT22;4223;48.724;8.982;2022-08-02T09:22:02;28.70;99.90
8372;DHT22;4223;48.724;8.982;2022-08-02T09:24:40;29.00;99.90
8372;DHT22;4223;48.724;8.982;2022-08-02T09:27:10;29.40;99.90
8372;DHT22;4223;48.724;8.982;2022-08-02T09:29:39;29.90;99.90
8372;DHT22;4223;48.724;8.982;2022-08-02T09:32:07;30.00;99.90
8372;DHT22;4223;48.724;8.982;2022-08-02T09:34:45;29.90;99.90
8372;DHT22;4223;48.724;8.982;2022-08-02T09:37:23;29.60;99.90
8372;DHT22;4223;48.724;8.982;2022-08-02T09:39:50;29.40;99.90
8372;DHT22;4223;48.724;8.982;2022-08-02T09:42:17;28.90;99.90
8372;DHT22;4223;48.724;8.982;2022-08-02T09:44:57;28.50;99.90
8372;DHT22;4223;48.724;8.982;2022-08-02T09:47:24;27.30;99.90
8372;DHT22;4223;48.724;8.982;2022-08-02T09:49:53;26.90;99.90
8372;DHT22;4223;48.724;8.982;2022-08-02T09:52:22;26.40;99.90
8372;DHT22;4223;48.724;8.982;2022-08-02T09:54:49;25.80;99.90
8372;DHT22;4223;48.724;8.982;2022-08-02T09:57:25;25.70;99.90
8372;DHT22;4223;48.724;8.982;2022-08-02T09:59:56;26.50;99.90
8372;DHT22;4223;48.724;8.982;2022-08-02T10:02:23;27.20;99.90
8372;DHT22;4223;48.724;8.982;2022-08-02T10:04:50;27.50;99.90
8372;DHT22;4223;48.724;8.982;2022-08-02T10:07:18;27.70;99.90
8372;DHT22;4223;48.724;8.982;2022-08-02T10:09:45;28.00;99.90
8372;DHT22;4223;48.724;8.982;2022-08-02T10:12:13;28.20;99.90
8372;DHT22;4223;48.724;8.982;2022-08-02T10:14:41;28.10;99.90
8372;DHT22;4223;48.724;8.982;2022-08-02T10:17:09;28.70;99.90
8372;DHT22;4223;48.724;8.982;2022-08-02T10:19:36;29.30;99.90
8372;DHT22;4223;48.724;8.982;2022-08-02T10:22:04;29.50;99.90
8372;DHT22;4223;48.724;8.982;2022-08-02T10:24:35;28.20;99.90
8372;DHT22;4223;48.724;8.982;2022-08-02T10:27:03;28.20;99.90
8372;DHT22;4223;48.724;8.982;2022-08-02T10:29:34;28.30;99.90
8372;DHT22;4223;48.724;8.982;2022-08-02T10:32:04;28.90;99.90
8372;DHT22;4223;48.724;8.982;2022-08-02T10:34:35;29.30;99.90
8372;DHT22;4223;48.724;8.982;2022-08-02T10:37:05;29.60;99.90
8372;DHT22;4223;48.724;8.982;2022-08-02T10:39:38;29.30;99.90
8372;DHT22;4223;48.724;8.982;2022-08-02T10:42:05;29.70;99.90
8372;DHT22;4223;48.724;8.982;2022-08-02T10:44:33;29.90;99.90
8372;DHT22;4223;48.724;8.982;2022-08-02T10:47:21;29.80;99.90
8372;DHT22;4223;48.724;8.982;2022-08-02T10:49:52;29.60;99.90
8372;DHT22;4223;48.724;8.982;2022-08-02T10:52:20;29.50;99.90
8372;DHT22;4223;48.724;8.982;2022-08-02T10:54:49;29.40;99.90
8372;DHT22;4223;48.724;8.982;2022-08-02T10:57:21;29.20;99.90
8372;DHT22;4223;48.724;8.982;2022-08-02T10:59:51;29.30;99.90
8372;DHT22;4223;48.724;8.982;2022-08-02T11:02:35;28.90;99.90
8372;DHT22;4223;48.724;8.982;2022-08-02T11:05:07;28.40;99.90
8372;DHT22;4223;48.724;8.982;2022-08-02T11:07:36;27.40;99.90
8372;DHT22;4223;48.724;8.982;2022-08-02T11:10:27;26.60;99.90
8372;DHT22;4223;48.724;8.982;2022-08-02T11:12:59;26.20;99.90
8372;DHT22;4223;48.724;8.982;2022-08-02T11:15:26;25.60;99.90
8372;DHT22;4223;48.724;8.982;2022-08-02T11:17:55;25.50;99.90
8372;DHT22;4223;48.724;8.982;2022-08-02T11:20:25;25.30;99.90
8372;DHT22;4223;48.724;8.982;2022-08-02T11:22:54;25.30;99.90
8372;DHT22;4223;48.724;8.982;2022-08-02T11:25:34;25.30;99.90
8372;DHT22;4223;48.724;8.982;2022-08-02T11:28:09;25.20;99.90
8372;DHT22;4223;48.724;8.982;2022-08-02T11:30:37;25.40;99.90
8372;DHT22;4223;48.724;8.982;2022-08-02T11:33:04;25.90;99.90
8372;DHT22;4223;48.724;8.982;2022-08-02T11:35:34;26.00;99.90
8372;DHT22;4223;48.724;8.982;2022-08-02T11:38:16;26.40;99.90
8372;DHT22;4223;48.724;8.982;2022-08-02T11:40:44;26.60;99.90
8372;DHT22;4223;48.724;8.982;2022-08-02T11:43:19;26.30;99.90
8372;DHT22;4223;48.724;8.982;2022-08-02T11:45:46;26.40;99.90
8372;DHT22;4223;48.724;8.982;2022-08-02T11:48:13;26.40;99.90
8372;DHT22;4223;48.724;8.982;2022-08-02T11:50:41;26.50;99.90
8372;DHT22;4223;48.724;8.982;2022-08-02T11:53:13;27.10;99.90
8372;DHT22;4223;48.724;8.982;2022-08-02T11:55:40;27.60;99.90
8372;DHT22;4223;48.724;8.982;2022-08-02T11:58:08;27.90;99.90
8372;DHT22;4223;48.724;8.982;2022-08-02T12:00:36;28.30;99.90
8372;DHT22;4223;48.724;8.982;2022-08-02T12:03:06;28.50;99.90
8372;DHT22;4223;48.724;8.982;2022-08-02T12:05:33;28.30;99.90
8372;DHT22;4223;48.724;8.982;2022-08-02T12:08:05;28.30;99.90
8372;DHT22;4223;48.724;8.982;2022-08-02T12:10:32;28.70;99.90
8372;DHT22;4223;48.724;8.982;2022-08-02T12:13:00;28.80;99.90
8372;DHT22;4223;48.724;8.982;2022-08-02T12:15:34;28.10;99.90
8372;DHT22;4223;48.724;8.982;2022-08-02T12:18:03;27.80;99.90
8372;DHT22;4223;48.724;8.982;2022-08-02T12:20:51;27.90;99.90
8372;DHT22;4223;48.724;8.982;2022-08-02T12:23:19;28.20;99.90
8372;DHT22;4223;48.724;8.982;2022-08-02T12:25:59;28.20;99.90
8372;DHT22;4223;48.724;8.982;2022-08-02T12:28:26;28.30;99.90
8372;DHT22;4223;48.724;8.982;2022-08-02T12:30:54;28.20;99.90
8372;DHT22;4223;48.724;8.982;2022-08-02T12:33:23;28.30;99.90
8372;DHT22;4223;48.724;8.982;2022-08-02T12:35:50;28.40;99.90
8372;DHT22;4223;48.724;8.982;2022-08-02T12:38:17;28.30;99.90
8372;DHT22;4223;48.724;8.982;2022-08-02T12:40:46;28.40;99.90
8372;DHT22;4223;48.724;8.982;2022-08-02T12:43:18;28.40;99.90
8372;DHT22;4223;48.724;8.982;2022-08-02T12:45:47;28.40;99.90
8372;DHT22;4223;48.724;8.982;2022-08-02T12:48:14;28.40;99.90
8372;DHT22;4223;48.724;8.982;2022-08-02T12:50:42;28.30;99.90
8372;DHT22;4223;48.724;8.982;2022-08-02T12:53:11;28.30;99.90
8372;DHT22;4223;48.724;8.982;2022-08-02T12:55:49;28.20;99.90
8372;DHT22;4223;48.724;8.982;2022-08-02T12:58:16;28.60;99.90
8372;DHT22;4223;48.724;8.982;2022-08-02T13:00:51;28.60;99.90
8372;DHT22;4223;48.724;8.982;2022-08-02T13:03:18;28.40;99.90
8372;DHT22;4223;48.724;8.982;2022-08-02T13:05:45;28.30;99.90
8372;DHT22;4223;48.724;8.982;2022-08-02T13:08:13;28.20;99.90
8372;DHT22;4223;48.724;8.982;2022-08-02T13:10:40;28.10;99.90
8372;DHT22;4223;48.724;8.982;2022-08-02T13:13:08;27.80;99.90
8372;DHT22;4223;48.724;8.982;2022-08-02T13:15:35;27.80;99.90
8372;DHT22;4223;48.724;8.982;2022-08-02T13:18:03;27.90;99.90
8372;DHT22;4223;48.724;8.982;2022-08-02T13:20:30;27.70;99.90
8372;DHT22;4223;48.724;8.982;2022-08-02T13:22:57;27.60;99.90
8372;DHT22;4223;48.724;8.982;2022-08-02T13:25:24;27.40;99.90
8372;DHT22;4223;48.724;8.982;2022-08-02T13:27:51;27.20;99.90
8372;DHT22;4223;48.724;8.982;2022-08-02T13:30:20;27.20;99.90
8372;DHT22;4223;48.724;8.982;2022-08-02T13:32:46;27.30;99.90
8372;DHT22;4223;48.724;8.982;2022-08-02T13:35:13;27.20;99.90
8372;DHT22;4223;48.724;8.982;2022-08-02T13:37:41;27.10;99.90
8372;DHT22;4223;48.724;8.982;2022-08-02T13:40:09;27.00;99.90
8372;DHT22;4223;48.724;8.982;2022-08-02T13:42:36;27.00;99.90
8372;DHT22;4223;48.724;8.982;2022-08-02T13:45:04;27.20;99.90
8372;DHT22;4223;48.724;8.982;2022-08-02T13:47:32;27.70;99.90
8372;DHT22;4223;48.724;8.982;2022-08-02T13:49:59;27.80;99.90
8372;DHT22;4223;48.724;8.982;2022-08-02T13:52:27;28.10;99.90
8372;DHT22;4223;48.724;8.982;2022-08-02T13:54:54;28.10;99.90
8372;DHT22;4223;48.724;8.982;2022-08-02T13:57:21;28.10;99.90
8372;DHT22;4223;48.724;8.982;2022-08-02T13:59:48;28.10;99.90
8372;DHT22;4223;48.724;8.982;2022-08-02T14:02:15;28.00;99.90
8372;DHT22;4223;48.724;8.982;2022-08-02T14:04:44;27.90;99.90
8372;DHT22;4223;48.724;8.982;2022-08-02T14:07:11;27.80;99.90
8372;DHT22;4223;48.724;8.982;2022-08-02T14:09:39;27.80;99.90
8372;DHT22;4223;48.724;8.982;2022-08-02T14:12:06;27.60;99.90
8372;DHT22;4223;48.724;8.982;2022-08-02T14:14:34;27.50;99.90
8372;DHT22;4223;48.724;8.982;2022-08-02T14:17:01;27.40;99.90
8372;DHT22;4223;48.724;8.982;2022-08-02T14:19:28;27.60;99.90
8372;DHT22;4223;48.724;8.982;2022-08-02T14:21:56;27.80;99.90
8372;DHT22;4223;48.724;8.982;2022-08-02T14:24:24;28.10;99.90
8372;DHT22;4223;48.724;8.982;2022-08-02T14:26:50;28.30;99.90
8372;DHT22;4223;48.724;8.982;2022-08-02T14:29:17;28.50;99.90
8372;DHT22;4223;48.724;8.982;2022-08-02T14:31:44;28.40;99.90
8372;DHT22;4223;48.724;8.982;2022-08-02T14:34:12;28.30;99.90
8372;DHT22;4223;48.724;8.982;2022-08-02T14:36:39;28.50;99.90
8372;DHT22;4223;48.724;8.982;2022-08-02T14:39:07;28.70;99.90
8372;DHT22;4223;48.724;8.982;2022-08-02T14:41:34;28.80;99.90
8372;DHT22;4223;48.724;8.982;2022-08-02T14:44:02;28.90;99.90
8372;DHT22;4223;48.724;8.982;2022-08-02T14:46:30;28.50;99.90
8372;DHT22;4223;48.724;8.982;2022-08-02T14:48:57;28.30;99.90
8372;DHT22;4223;48.724;8.982;2022-08-02T14:51:26;28.30;99.90
8372;DHT22;4223;48.724;8.982;2022-08-02T14:53:53;28.40;99.90
8372;DHT22;4223;48.724;8.982;2022-08-02T14:56:22;28.00;99.90
8372;DHT22;4223;48.724;8.982;2022-08-02T14:58:48;27.90;99.90
8372;DHT22;4223;48.724;8.982;2022-08-02T15:01:15;27.70;99.90
8372;DHT22;4223;48.724;8.982;2022-08-02T15:03:42;27.80;99.90
8372;DHT22;4223;48.724;8.982;2022-08-02T15:06:09;28.30;99.90
8372;DHT22;4223;48.724;8.982;2022-08-02T15:08:36;28.30;99.90
8372;DHT22;4223;48.724;8.982;2022-08-02T15:11:03;28.50;99.90
8372;DHT22;4223;48.724;8.982;2022-08-02T15:13:31;28.60;99.90
8372;DHT22;4223;48.724;8.982;2022-08-02T15:15:58;29.10;99.90
8372;DHT22;4223;48.724;8.982;2022-08-02T15:18:25;29.40;99.90
8372;DHT22;4223;48.724;8.982;2022-08-02T15:20:52;29.80;99.90
8372;DHT22;4223;48.724;8.982;2022-08-02T15:23:19;30.00;99.90
8372;DHT22;4223;48.724;8.982;2022-08-02T15:25:46;30.20;99.90
8372;DHT22;4223;48.724;8.982;2022-08-02T15:28:13;29.70;99.90
8372;DHT22;4223;48.724;8.982;2022-08-02T15:30:41;29.80;99.90
8372;DHT22;4223;48.724;8.982;2022-08-02T15:33:08;29.90;99.90
8372;DHT22;4223;48.724;8.982;2022-08-02T15:35:35;29.90;99.90
8372;DHT22;4223;48.724;8.982;2022-08-02T15:38:02;29.90;99.90
8372;DHT22;4223;48.724;8.982;2022-08-02T15:40:29;29.80;99.90
8372;DHT22;4223;48.724;8.982;2022-08-02T15:42:56;29.70;99.90
8372;DHT22;4223;48.724;8.982;2022-08-02T15:45:23;29.80;99.90
8372;DHT22;4223;48.724;8.982;2022-08-02T15:47:53;29.80;99.90
8372;DHT22;4223;48.724;8.982;2022-08-02T15:50:20;29.70;99.90
8372;DHT22;4223;48.724;8.982;2022-08-02T15:52:47;29.70;99.90
8372;DHT22;4223;48.724;8.982;2022-08-02T15:55:14;29.30;99.90
8372;DHT22;4223;48.724;8.982;2022-08-02T15:57:41;29.10;99.90
8372;DHT22;4223;48.724;8.982;2022-08-02T16:00:09;29.20;99.90
8372;DHT22;4223;48.724;8.982;2022-08-02T16:02:36;29.30;99.90
8372;DHT22;4223;48.724;8.982;2022-08-02T16:05:05;29.30;99.90
8372;DHT22;4223;48.724;8.982;2022-08-02T16:07:32;29.30;99.90
8372;DHT22;4223;48.724;8.982;2022-08-02T16:09:59;29.10;99.90
8372;DHT22;4223;48.724;8.982;2022-08-02T16:12:26;28.70;99.90